Time;durP1;ratioP1;P1;durP2;ratioP2;P2;SDS_P1;SDS_P2;PMS_P1;PMS_P2;Temp;Humidity;BMP_temperature;BMP_pressure;BME280_temperature;BME280_humidity;BME280_pressure;Samples;Min_cycle;Max_cycle;Signal;HPM_P1;HPM_P2
2023/09/14 00:00:35;;;;;;;9.73;3.10;;;14.50;99.90;;;;;;5025786;28;20032;-56
2023/09/14 00:03:02;;;;;;;8.90;2.72;;;14.50;99.90;;;;;;5025604;28;20041;-57
2023/09/14 00:05:29;;;;;;;7.45;2.80;;;14.50;99.90;;;;;;5026227;28;20116;-57
2023/09/14 00:07:54;;;;;;;6.80;3.03;;;14.40;99.90;;;;;;5025197;28;20025;-57
2023/09/14 00:10:20;;;;;;;5.07;2.70;;;14.40;99.90;;;;;;5025914;28;20096;-56
2023/09/14 00:12:46;;;;;;;7.82;3.03;;;14.40;99.90;;;;;;5025713;28;20124;-57
2023/09/14 00:15:11;;;;;;;6.32;2.83;;;14.30;99.90;;;;;;5027264;28;20232;-56
2023/09/14 00:17:37;;;;;;;8.88;3.30;;;13.90;99.90;;;;;;5025086;28;20665;-56
2023/09/14 00:20:05;;;;;;;5.85;3.20;;;14.10;99.90;;;;;;5029461;28;20087;-57
2023/09/14 00:22:32;;;;;;;7.47;3.30;;;;;;;;;;5024720;28;20114;-57
2023/09/14 00:24:59;;;;;;;7.20;2.83;;;;;;;;;;5029124;28;20044;-57
2023/09/14 00:27:25;;;;;;;8.27;3.13;;;;;;;;;;5027533;28;20118;-56
2023/09/14 00:29:51;;;;;;;5.63;2.97;;;;;;;;;;5025357;28;20033;-56
2023/09/14 00:32:17;;;;;;;7.32;2.92;;;;;;;;;;5024309;28;20071;-56
2023/09/14 00:34:43;;;;;;;8.73;2.83;;;;;;;;;;5024903;28;20029;-57
2023/09/14 00:37:09;;;;;;;5.55;3.10;;;;;;;;;;5024328;28;20033;-56
2023/09/14 00:39:34;;;;;;;6.88;3.30;;;;;;;;;;5028265;28;20033;-57
2023/09/14 00:42:00;;;;;;;9.43;3.35;;;;;;;;;;5026402;28;20068;-55
2023/09/14 00:44:26;;;;;;;8.68;3.40;;;;;;;;;;5020715;28;20100;-57
2023/09/14 00:46:52;;;;;;;7.88;3.22;;;;;;;;;;5026068;28;20113;-57
2023/09/14 00:49:18;;;;;;;6.95;3.08;;;;;;;;;;5024570;28;20044;-56
2023/09/14 00:51:44;;;;;;;5.45;3.70;;;;;;;;;;5056205;28;20037;-57
2023/09/14 00:54:11;;;;;;;7.35;3.15;;;;;;;;;;5026912;28;20106;-57
2023/09/14 00:56:37;;;;;;;8.60;3.22;;;;;;;;;;5027407;28;20574;-57
2023/09/14 00:59:05;;;;;;;6.47;3.33;;;;;;;;;;5027950;28;20034;-56
2023/09/14 01:01:32;;;;;;;8.05;2.92;;;;;;;;;;5024553;28;20118;-56
2023/09/14 01:03:58;;;;;;;6.18;2.55;;;;;;;;;;5023897;28;20564;-57
2023/09/14 01:06:27;;;;;;;6.80;3.00;;;;;;;;;;5024325;28;20144;-57
2023/09/14 01:08:54;;;;;;;11.55;3.05;;;;;;;;;;5011738;28;20033;-56
2023/09/14 01:11:20;;;;;;;7.20;3.30;;;;;;;;;;5025832;28;20038;-57
2023/09/14 01:14:08;;;;;;;9.48;3.45;;;;;;;;;;5022165;28;20163;-56
2023/09/14 01:16:45;;;;;;;11.05;3.22;;;;;;;;;;5016507;28;20103;-57
2023/09/14 01:19:23;;;;;;;6.95;3.38;;;;;;;;;;5023900;28;20573;-56
2023/09/14 01:21:59;;;;;;;7.57;2.90;;;;;;;;;;5025699;28;20079;-56
2023/09/14 01:24:42;;;;;;;6.57;3.28;;;;;;;;;;5023334;28;20469;-57
2023/09/14 01:27:08;;;;;;;8.20;3.53;;;;;;;;;;5024646;28;20060;-57
2023/09/14 01:29:34;;;;;;;8.82;3.25;;;;;;;;;;5027639;28;20037;-56
2023/09/14 01:32:00;;;;;;;7.88;2.95;;;;;;;;;;5027953;28;20120;-56
2023/09/14 01:34:26;;;;;;;7.80;3.08;;;;;;;;;;5023925;28;20604;-55
2023/09/14 01:36:57;;;;;;;5.75;3.10;;;;;;;;;;5023875;28;20059;-57
2023/09/14 01:39:24;;;;;;;5.72;3.17;;;;;;;;;;5022562;28;20042;-57
2023/09/14 01:41:54;;;;;;;7.32;3.00;;;;;;;;;;5024291;28;20068;-55
2023/09/14 01:44:21;;;;;;;5.43;2.95;;;;;;;;;;5022468;28;20073;-57
2023/09/14 01:46:47;;;;;;;8.27;3.22;;;13.80;99.90;;;;;;5029173;28;20124;-55
2023/09/14 01:49:13;;;;;;;7.22;2.95;;;13.80;99.90;;;;;;5024708;28;20044;-56
2023/09/14 01:51:39;;;;;;;6.03;2.92;;;13.80;99.90;;;;;;5023051;28;20033;-57
2023/09/14 01:54:05;;;;;;;8.82;3.28;;;13.90;99.90;;;;;;5028119;28;20271;-57
2023/09/14 01:56:30;;;;;;;7.35;3.28;;;13.80;99.90;;;;;;5026205;28;20091;-57
2023/09/14 01:58:56;;;;;;;7.07;2.95;;;13.70;99.90;;;;;;5026068;28;20076;-56
2023/09/14 02:01:21;;;;;;;7.40;3.08;;;13.60;99.90;;;;;;5023768;28;20041;-56
2023/09/14 02:03:48;;;;;;;4.55;2.67;;;;;;;;;;5023250;28;20041;-57
2023/09/14 02:06:14;;;;;;;8.48;3.20;;;;;;;;;;5022741;28;20026;-57
2023/09/14 02:08:39;;;;;;;12.13;3.17;;;13.20;99.90;;;;;;5023126;28;20358;-57
2023/09/14 02:11:05;;;;;;;7.30;3.35;;;13.50;99.90;;;;;;5021993;28;20563;-56
2023/09/14 02:13:31;;;;;;;9.63;3.38;;;13.50;99.90;;;;;;4998109;28;20143;-57
2023/09/14 02:15:58;;;;;;;7.57;3.13;;;;;;;;;;4995044;28;20053;-56
2023/09/14 02:18:24;;;;;;;6.28;3.33;;;;;;;;;;5025987;28;22037;-56
2023/09/14 02:20:50;;;;;;;7.15;3.53;;;;;;;;;;5015173;28;20031;-55
2023/09/14 02:23:19;;;;;;;7.80;3.30;;;;;;;;;;4996067;28;20034;-55
2023/09/14 02:25:56;;;;;;;6.22;3.25;;;;;;;;;;5013547;28;20113;-56
2023/09/14 02:28:22;;;;;;;5.93;3.00;;;;;;;;;;5022728;28;20038;-56
2023/09/14 02:30:48;;;;;;;7.50;3.10;;;13.50;99.90;;;;;;5023062;28;20396;-56
2023/09/14 02:33:14;;;;;;;7.47;3.50;;;13.60;99.90;;;;;;5027681;28;20044;-56
2023/09/14 02:35:39;;;;;;;6.15;3.15;;;13.60;99.90;;;;;;5027440;28;20249;-56
2023/09/14 02:38:05;;;;;;;5.20;3.17;;;13.50;99.90;;;;;;5025414;28;20033;-56
2023/09/14 02:40:31;;;;;;;6.65;3.35;;;13.50;99.90;;;;;;5029030;28;20033;-56
2023/09/14 02:42:58;;;;;;;8.90;3.33;;;13.50;99.90;;;;;;5024252;28;20034;-56
2023/09/14 02:45:24;;;;;;;7.50;2.88;;;13.50;99.90;;;;;;5026747;28;20063;-55
2023/09/14 02:47:49;;;;;;;9.23;3.40;;;13.60;99.90;;;;;;5026124;28;20033;-56
2023/09/14 02:50:15;;;;;;;10.05;3.20;;;13.80;99.90;;;;;;5032536;28;20055;-56
2023/09/14 02:52:40;;;;;;;4.43;3.00;;;13.70;99.90;;;;;;5027902;28;20033;-56
2023/09/14 02:55:06;;;;;;;8.95;3.60;;;13.60;99.90;;;;;;5026586;28;20025;-56
2023/09/14 02:57:32;;;;;;;5.25;2.83;;;13.60;99.90;;;;;;5027755;28;20486;-56
2023/09/14 02:59:58;;;;;;;5.05;3.20;;;13.60;99.90;;;;;;5026216;28;20045;-56
2023/09/14 03:02:24;;;;;;;9.02;3.25;;;13.60;99.90;;;;;;5035021;28;20041;-56
2023/09/14 03:04:49;;;;;;;9.88;3.05;;;13.70;99.90;;;;;;5030034;28;20441;-55
2023/09/14 03:07:15;;;;;;;7.35;2.95;;;13.70;99.90;;;;;;5027849;28;20389;-56
2023/09/14 03:09:41;;;;;;;7.43;2.80;;;13.80;99.90;;;;;;5027321;28;20029;-56
2023/09/14 03:12:07;;;;;;;7.35;2.85;;;13.70;99.90;;;;;;5027118;28;20559;-56
2023/09/14 03:14:33;;;;;;;6.55;2.70;;;13.70;99.90;;;;;;5026109;28;20041;-56
2023/09/14 03:16:59;;;;;;;8.73;2.97;;;13.80;99.90;;;;;;5028016;28;20712;-56
2023/09/14 03:19:25;;;;;;;12.82;3.35;;;13.80;99.90;;;;;;5026997;28;20581;-57
2023/09/14 03:21:50;;;;;;;7.05;2.90;;;13.80;99.90;;;;;;5028086;28;20041;-56
2023/09/14 03:24:16;;;;;;;6.93;3.05;;;13.90;99.90;;;;;;5028252;28;20395;-56
2023/09/14 03:26:42;;;;;;;6.45;3.20;;;13.90;99.90;;;;;;5033073;28;20461;-57
2023/09/14 03:29:07;;;;;;;7.82;3.30;;;13.90;99.90;;;;;;5026178;28;20034;-56
2023/09/14 03:31:34;;;;;;;8.52;3.05;;;14.00;99.90;;;;;;5025380;28;20040;-56
2023/09/14 03:34:00;;;;;;;4.95;2.67;;;13.80;99.90;;;;;;5022471;28;20052;-57
2023/09/14 03:36:26;;;;;;;7.43;2.75;;;13.70;99.90;;;;;;5023425;28;20393;-57
2023/09/14 03:38:52;;;;;;;5.70;3.00;;;13.50;99.90;;;;;;5026309;28;20040;-56
2023/09/14 03:41:18;;;;;;;5.72;3.00;;;13.50;99.90;;;;;;5014456;28;20065;-57
2023/09/14 03:43:43;;;;;;;9.00;2.70;;;13.70;99.90;;;;;;5024442;28;20034;-56
2023/09/14 03:46:12;;;;;;;8.63;3.65;;;13.70;99.90;;;;;;5023106;28;20445;-55
2023/09/14 03:48:38;;;;;;;7.80;3.33;;;13.70;99.90;;;;;;5026584;28;20257;-54
2023/09/14 03:51:03;;;;;;;11.05;3.58;;;13.90;99.90;;;;;;5030203;28;20525;-54
2023/09/14 03:53:29;;;;;;;5.97;3.22;;;13.80;99.90;;;;;;5031297;28;20472;-55
2023/09/14 03:55:55;;;;;;;6.63;3.35;;;13.90;99.90;;;;;;5029727;28;20033;-56
2023/09/14 03:58:22;;;;;;;7.10;3.45;;;13.90;99.90;;;;;;5025556;28;20041;-57
2023/09/14 04:00:48;;;;;;;10.45;3.40;;;13.90;99.90;;;;;;5030514;28;20191;-56
2023/09/14 04:03:16;;;;;;;7.40;3.17;;;13.90;99.90;;;;;;5030672;28;20104;-56
2023/09/14 04:05:41;;;;;;;8.82;3.17;;;14.00;99.90;;;;;;5030458;28;20029;-57
2023/09/14 04:08:07;;;;;;;6.65;4.00;;;14.00;99.90;;;;;;5030275;28;20378;-57
2023/09/14 04:10:35;;;;;;;6.85;2.90;;;13.90;99.90;;;;;;5027908;28;20049;-55
2023/09/14 04:13:29;;;;;;;7.22;3.15;;;13.90;99.90;;;;;;5027455;28;20172;-56
2023/09/14 04:15:55;;;;;;;;;;;13.80;99.90;;;;;;5026574;28;20361;-55
2023/09/14 04:18:21;;;;;;;10.82;3.40;;;13.70;99.90;;;;;;5030514;28;20264;-55
2023/09/14 04:20:47;;;;;;;7.65;2.90;;;13.90;99.90;;;;;;5026846;28;20030;-56
2023/09/14 04:23:13;;;;;;;10.57;3.63;;;13.80;99.90;;;;;;5029876;28;20447;-57
2023/09/14 04:25:44;;;;;;;8.63;3.63;;;13.90;99.90;;;;;;5024320;28;20030;-56
2023/09/14 04:28:12;;;;;;;8.02;3.90;;;14.00;99.90;;;;;;5013628;28;20409;-56
2023/09/14 04:30:45;;;;;;;10.95;3.80;;;14.00;99.90;;;;;;5006031;28;20041;-56
2023/09/14 04:33:12;;;;;;;11.65;3.63;;;14.50;99.90;;;;;;5003966;28;20054;-56
2023/09/14 04:35:38;;;;;;;11.98;3.80;;;14.20;99.90;;;;;;5016853;28;20079;-56
2023/09/14 04:38:05;;;;;;;8.75;3.40;;;13.90;99.90;;;;;;5013842;28;20034;-55
2023/09/14 04:40:31;;;;;;;6.03;3.28;;;13.80;99.90;;;;;;5001630;28;20144;-57
2023/09/14 04:42:56;;;;;;;8.75;3.45;;;14.00;99.90;;;;;;5012440;28;20080;-56
2023/09/14 04:45:22;;;;;;;8.10;3.38;;;13.90;99.90;;;;;;4996100;28;20039;-57
2023/09/14 04:47:47;;;;;;;9.13;3.78;;;13.90;99.90;;;;;;5001899;28;20073;-57
2023/09/14 04:50:13;;;;;;;8.45;3.40;;;14.00;99.90;;;;;;5005541;28;20041;-55
2023/09/14 04:52:38;;;;;;;7.63;3.30;;;13.90;99.90;;;;;;5011356;28;20045;-57
2023/09/14 04:55:04;;;;;;;10.68;3.40;;;13.80;99.90;;;;;;5009943;28;20030;-56
2023/09/14 04:57:30;;;;;;;13.32;3.90;;;13.80;99.90;;;;;;5002687;28;20065;-57
2023/09/14 04:59:55;;;;;;;8.13;3.40;;;13.80;99.90;;;;;;5006985;28;20156;-57
2023/09/14 05:02:23;;;;;;;6.95;3.10;;;13.60;99.90;;;;;;5002598;28;20452;-57
2023/09/14 05:04:49;;;;;;;7.68;3.17;;;13.60;99.90;;;;;;4999156;28;20125;-57
2023/09/14 05:07:14;;;;;;;9.13;3.70;;;13.50;99.90;;;;;;5004424;28;20159;-56
2023/09/14 05:09:40;;;;;;;6.72;3.50;;;13.60;99.90;;;;;;5024722;28;20034;-57
2023/09/14 05:12:05;;;;;;;6.80;3.40;;;13.40;99.90;;;;;;5002696;28;20052;-57
2023/09/14 05:14:32;;;;;;;9.65;3.45;;;13.50;99.90;;;;;;5027300;28;20046;-57
2023/09/14 05:16:57;;;;;;;10.70;3.72;;;13.60;99.90;;;;;;4999135;28;20095;-57
2023/09/14 05:19:23;;;;;;;9.05;3.47;;;13.30;99.90;;;;;;5002813;28;21901;-57
2023/09/14 05:21:48;;;;;;;6.03;3.55;;;13.60;99.90;;;;;;5002017;28;20526;-57
2023/09/14 05:24:14;;;;;;;6.53;3.53;;;13.60;99.90;;;;;;4999573;28;20068;-56
2023/09/14 05:26:40;;;;;;;7.43;3.58;;;13.60;99.90;;;;;;5019275;28;20040;-57
2023/09/14 05:29:05;;;;;;;6.93;3.10;;;13.50;99.90;;;;;;5028795;28;20048;-56
2023/09/14 05:31:32;;;;;;;5.30;2.90;;;;;;;;;;5025692;28;20352;-58
2023/09/14 05:33:57;;;;;;;9.65;3.75;;;13.20;99.90;;;;;;5023779;28;20091;-56
2023/09/14 05:36:23;;;;;;;7.47;3.20;;;13.40;99.90;;;;;;5022809;28;20033;-57
2023/09/14 05:38:49;;;;;;;10.60;3.40;;;13.40;99.90;;;;;;5029657;28;20041;-57
2023/09/14 05:41:14;;;;;;;7.75;3.78;;;13.60;99.90;;;;;;5028951;28;20052;-57
2023/09/14 05:43:40;;;;;;;8.35;3.47;;;13.60;99.90;;;;;;5028714;28;20032;-57
2023/09/14 05:46:06;;;;;;;14.73;3.72;;;;;;;;;;5030255;28;20254;-57
2023/09/14 05:48:33;;;;;;;9.20;4.20;;;13.50;99.90;;;;;;5030954;28;20045;-57
2023/09/14 05:50:59;;;;;;;6.10;3.30;;;;;;;;;;5026206;28;20052;-57
2023/09/14 05:53:25;;;;;;;9.80;3.83;;;13.30;99.90;;;;;;5028640;28;20059;-56
2023/09/14 05:55:53;;;;;;;9.02;3.67;;;13.40;99.90;;;;;;5030286;28;20441;-57
2023/09/14 05:58:19;;;;;;;14.88;3.50;;;13.50;99.90;;;;;;5032395;28;20037;-56
2023/09/14 06:00:45;;;;;;;9.27;3.60;;;13.40;99.90;;;;;;5026930;28;20112;-58
2023/09/14 06:03:11;;;;;;;6.75;4.20;;;13.40;99.90;;;;;;5016366;28;20049;-59
2023/09/14 06:05:37;;;;;;;12.68;4.03;;;;;;;;;;5022498;28;20111;-57
2023/09/14 06:08:04;;;;;;;8.48;4.03;;;13.60;99.90;;;;;;5023007;28;20033;-58
2023/09/14 06:10:30;;;;;;;8.35;4.13;;;13.60;99.90;;;;;;5021508;28;20084;-59
2023/09/14 06:12:58;;;;;;;6.55;3.90;;;13.70;99.90;;;;;;5022190;28;20037;-57
2023/09/14 06:15:24;;;;;;;8.82;3.83;;;13.70;99.90;;;;;;5028317;28;20357;-59
2023/09/14 06:17:49;;;;;;;9.95;4.00;;;13.70;99.90;;;;;;5027099;28;20112;-57
2023/09/14 06:20:15;;;;;;;8.80;4.20;;;13.60;99.90;;;;;;5018895;28;20030;-57
2023/09/14 06:22:41;;;;;;;7.75;3.83;;;13.60;99.90;;;;;;5023284;28;20026;-57
2023/09/14 06:25:07;;;;;;;11.85;4.22;;;13.80;99.90;;;;;;5026758;28;20037;-57
2023/09/14 06:27:33;;;;;;;8.32;3.80;;;13.90;99.90;;;;;;5027085;28;20034;-56
2023/09/14 06:29:58;;;;;;;11.52;4.30;;;13.90;99.90;;;;;;5017483;28;20048;-59
2023/09/14 06:32:24;;;;;;;47.33;31.48;;;;;;;;;;5017190;28;20026;-58
2023/09/14 06:34:51;;;;;;;40.10;26.95;;;;;;;;;;5013985;28;20086;-58
2023/09/14 06:37:18;;;;;;;10.23;6.30;;;14.10;99.90;;;;;;5023945;28;20331;-57
2023/09/14 06:39:44;;;;;;;12.38;5.15;;;;;;;;;;5031175;28;20033;-58
2023/09/14 06:42:12;;;;;;;8.52;4.95;;;;;;;;;;5023001;28;20617;-58
2023/09/14 06:44:38;;;;;;;9.98;5.75;;;;;;;;;;5021107;28;20034;-58
2023/09/14 06:47:04;;;;;;;17.58;6.20;;;;;;;;;;5007264;28;20034;-58
2023/09/14 06:49:30;;;;;;;13.02;5.95;;;;;;;;;;5004525;28;20049;-58
2023/09/14 06:51:56;;;;;;;20.13;7.28;;;;;;;;;;5008704;28;20624;-59
2023/09/14 06:54:22;;;;;;;15.82;7.43;;;;;;;;;;5012416;28;20100;-58
2023/09/14 06:56:48;;;;;;;18.40;7.55;;;;;;;;;;5003082;28;20030;-58
2023/09/14 06:59:14;;;;;;;14.98;7.38;;;;;;;;;;4991939;28;20042;-58
2023/09/14 07:01:40;;;;;;;17.25;9.00;;;;;;;;;;5009677;28;20030;-58
2023/09/14 07:04:07;;;;;;;18.80;8.50;;;;;;;;;;5015389;28;20372;-58
2023/09/14 07:06:33;;;;;;;18.05;9.18;;;;;;;;;;5024289;28;20507;-58
2023/09/14 07:09:02;;;;;;;20.70;9.50;;;;;;;;;;5032508;28;20400;-58
2023/09/14 07:11:28;;;;;;;27.55;12.15;;;;;;;;;;5027329;28;20475;-58
2023/09/14 07:13:55;;;;;;;21.00;10.38;;;;;;;;;;5030881;28;20045;-58
2023/09/14 07:16:22;;;;;;;26.88;10.85;;;;;;;;;;5032270;28;20045;-58
2023/09/14 07:18:48;;;;;;;40.20;15.27;;;;;;;;;;5028920;28;20342;-58
2023/09/14 07:21:14;;;;;;;21.38;11.32;;;;;;;;;;5026368;28;20039;-58
2023/09/14 07:23:39;;;;;;;25.05;10.02;;;16.00;99.90;;;;;;5032784;28;20116;-58
2023/09/14 07:26:07;;;;;;;19.95;11.27;;;16.00;99.90;;;;;;5036563;28;20365;-59
2023/09/14 07:28:33;;;;;;;21.75;11.52;;;16.20;99.90;;;;;;5027678;28;20126;-60
2023/09/14 07:31:03;;;;;;;22.00;10.80;;;16.30;99.90;;;;;;5029886;28;20556;-60
2023/09/14 07:33:29;;;;;;;22.73;11.45;;;16.30;99.90;;;;;;5027369;28;20111;-59
2023/09/14 07:35:55;;;;;;;21.10;10.50;;;16.30;99.90;;;;;;5031293;28;20061;-59
2023/09/14 07:38:21;;;;;;;21.42;10.43;;;16.20;99.90;;;;;;5031725;28;20118;-60
2023/09/14 07:40:48;;;;;;;19.65;10.77;;;16.20;99.90;;;;;;5037329;28;20509;-59
2023/09/14 07:43:16;;;;;;;19.23;10.38;;;;;;;;;;5026423;28;20036;-60
2023/09/14 07:45:43;;;;;;;23.38;11.40;;;16.80;99.90;;;;;;5028680;28;20509;-60
2023/09/14 07:48:09;;;;;;;22.55;11.25;;;16.30;99.90;;;;;;5029191;28;20056;-59
2023/09/14 07:50:39;;;;;;;16.13;10.48;;;16.50;99.90;;;;;;5029901;28;20075;-59
2023/09/14 07:53:06;;;;;;;22.58;11.27;;;16.60;99.90;;;;;;5032577;28;20052;-59
2023/09/14 07:55:31;;;;;;;16.75;9.98;;;16.90;99.90;;;;;;5036814;28;20113;-59
2023/09/14 07:57:58;;;;;;;16.48;10.15;;;17.50;99.90;;;;;;5033993;28;20124;-60
2023/09/14 08:00:25;;;;;;;20.38;10.20;;;17.00;99.90;;;;;;5027394;28;20111;-59
2023/09/14 08:02:52;;;;;;;17.10;10.70;;;16.90;99.90;;;;;;5027205;28;20385;-58
2023/09/14 08:05:17;;;;;;;17.38;10.02;;;17.00;99.90;;;;;;5026857;28;20048;-58
2023/09/14 08:07:43;;;;;;;15.93;10.85;;;17.00;99.90;;;;;;5026849;28;20610;-59
2023/09/14 08:10:09;;;;;;;14.63;9.73;;;17.10;99.90;;;;;;5033676;28;20132;-59
2023/09/14 08:12:37;;;;;;;16.98;9.85;;;17.20;99.90;;;;;;5036172;28;20108;-59
2023/09/14 08:15:04;;;;;;;19.17;10.32;;;17.20;99.90;;;;;;5033417;28;20099;-59
2023/09/14 08:17:32;;;;;;;18.35;11.15;;;;;;;;;;5036600;28;20033;-59
2023/09/14 08:19:57;;;;;;;21.08;10.90;;;17.10;99.90;;;;;;5030854;28;20124;-59
2023/09/14 08:22:23;;;;;;;26.25;10.45;;;17.30;99.90;;;;;;5028015;28;20533;-59
2023/09/14 08:24:50;;;;;;;23.00;10.45;;;17.10;99.90;;;;;;5029368;28;20038;-59
2023/09/14 08:27:15;;;;;;;15.30;9.10;;;17.60;99.90;;;;;;5032878;28;20096;-59
2023/09/14 08:29:43;;;;;;;17.58;9.25;;;17.60;99.90;;;;;;5027534;28;20037;-57
2023/09/14 08:32:10;;;;;;;18.17;9.63;;;17.30;99.90;;;;;;5031713;28;20112;-59
2023/09/14 08:34:36;;;;;;;12.98;8.98;;;17.60;99.90;;;;;;5033987;28;20052;-58
2023/09/14 08:37:02;;;;;;;43.17;28.75;;;17.50;99.90;;;;;;5019529;28;20044;-57
2023/09/14 08:39:28;;;;;;;15.65;9.20;;;17.80;99.90;;;;;;5012527;28;20042;-57
2023/09/14 08:41:53;;;;;;;17.65;8.23;;;17.50;99.90;;;;;;5024527;28;20030;-58
2023/09/14 08:44:21;;;;;;;17.50;8.15;;;17.80;99.90;;;;;;5025356;28;20061;-57
2023/09/14 08:46:48;;;;;;;14.63;7.78;;;18.10;99.90;;;;;;5031804;28;20040;-57
2023/09/14 08:49:19;;;;;;;10.63;6.82;;;17.70;99.90;;;;;;5032473;28;20051;-58
2023/09/14 08:51:45;;;;;;;13.50;7.00;;;17.70;99.90;;;;;;5027265;28;20056;-58
2023/09/14 08:54:12;;;;;;;14.45;6.88;;;17.90;99.90;;;;;;5024357;28;20103;-58
2023/09/14 08:56:39;;;;;;;16.08;6.75;;;17.60;99.90;;;;;;5027610;28;20037;-58
2023/09/14 08:59:07;;;;;;;13.85;6.85;;;17.90;99.90;;;;;;5023388;28;20134;-58
2023/09/14 09:01:35;;;;;;;11.48;6.32;;;;;;;;;;5014802;28;20108;-58
2023/09/14 09:04:01;;;;;;;10.70;6.35;;;17.90;99.90;;;;;;5034838;28;22030;-57
2023/09/14 09:06:27;;;;;;;11.55;6.20;;;18.00;99.90;;;;;;5032731;28;20037;-58
2023/09/14 09:08:55;;;;;;;11.98;6.45;;;18.10;99.90;;;;;;5026160;28;20120;-58
2023/09/14 09:11:21;;;;;;;11.05;6.25;;;18.20;99.90;;;;;;5034771;28;20115;-59
2023/09/14 09:13:48;;;;;;;11.48;5.97;;;18.00;99.90;;;;;;5019842;28;20473;-58
2023/09/14 09:16:13;;;;;;;13.52;5.95;;;18.10;99.90;;;;;;5030049;28;20037;-58
2023/09/14 09:19:03;;;;;;;12.25;6.15;;;18.10;99.90;;;;;;5026529;28;20053;-58
2023/09/14 09:21:32;;;;;;;11.27;6.45;;;18.20;99.90;;;;;;5018666;28;20389;-58
2023/09/14 09:24:05;;;;;;;10.10;6.20;;;18.30;99.90;;;;;;5024140;28;20109;-58
2023/09/14 09:26:35;;;;;;;11.27;6.13;;;18.50;99.90;;;;;;5030679;28;20052;-58
2023/09/14 09:29:22;;;;;;;12.15;6.00;;;18.30;99.90;;;;;;5030568;28;20182;-58
2023/09/14 09:31:52;;;;;;;10.27;5.88;;;18.10;99.90;;;;;;5015466;28;20477;-58
2023/09/14 09:34:24;;;;;;;10.73;6.15;;;18.60;99.90;;;;;;5006360;28;20521;-59
2023/09/14 09:36:55;;;;;;;10.50;6.15;;;18.40;99.90;;;;;;5010010;28;20103;-58
2023/09/14 09:39:20;;;;;;;11.60;5.93;;;18.50;99.90;;;;;;5004818;28;20041;-58
2023/09/14 09:41:46;;;;;;;9.45;4.90;;;18.40;99.90;;;;;;5013860;28;20044;-58
2023/09/14 09:44:16;;;;;;;9.52;5.43;;;;;;;;;;5007327;28;20381;-58
2023/09/14 09:46:43;;;;;;;11.05;6.22;;;18.20;99.90;;;;;;5000621;28;20034;-58
2023/09/14 09:49:22;;;;;;;11.63;6.07;;;18.40;99.90;;;;;;5004398;28;20505;-58
2023/09/14 09:51:50;;;;;;;10.63;5.13;;;18.30;99.90;;;;;;5016575;28;20053;-58
2023/09/14 09:54:19;;;;;;;11.27;5.65;;;17.50;99.90;;;;;;5001325;28;20042;-58
2023/09/14 09:56:44;;;;;;;7.85;5.18;;;18.10;99.90;;;;;;5004498;28;20366;-58
2023/09/14 09:59:10;;;;;;;11.57;5.30;;;18.00;99.90;;;;;;5003587;28;20029;-58
2023/09/14 10:01:46;;;;;;;20.00;5.63;;;18.20;99.90;;;;;;5010448;28;20041;-58
2023/09/14 10:04:14;;;;;;;14.95;7.82;;;18.30;99.90;;;;;;5001745;28;20436;-58
2023/09/14 10:06:43;;;;;;;16.35;7.85;;;;;;;;;;5010380;28;20047;-59
2023/09/14 10:09:11;;;;;;;20.55;8.07;;;17.90;99.90;;;;;;5015095;28;20036;-59
2023/09/14 10:11:38;;;;;;;15.57;7.57;;;18.30;99.90;;;;;;5007678;28;20085;-57
2023/09/14 10:14:04;;;;;;;12.70;7.13;;;18.20;99.90;;;;;;5030191;28;20572;-58
2023/09/14 10:16:41;;;;;;;15.93;7.63;;;18.40;99.90;;;;;;5022349;28;20042;-57
2023/09/14 10:19:08;;;;;;;15.52;8.07;;;18.20;99.90;;;;;;5054367;28;20452;-58
2023/09/14 10:21:35;;;;;;;11.77;8.00;;;;;;;;;;5023463;28;20442;-58
2023/09/14 10:24:05;;;;;;;17.45;9.30;;;18.20;99.90;;;;;;5026140;28;20044;-59
2023/09/14 10:26:32;;;;;;;15.55;8.35;;;18.50;99.90;;;;;;5026736;28;20040;-58
2023/09/14 10:28:58;;;;;;;16.77;8.60;;;;;;;;;;5026045;28;20044;-57
2023/09/14 10:31:24;;;;;;;15.95;8.60;;;18.10;99.90;;;;;;5026746;28;20381;-58
2023/09/14 10:33:51;;;;;;;17.10;9.25;;;18.50;99.90;;;;;;5028221;28;20727;-58
2023/09/14 10:36:18;;;;;;;16.77;9.02;;;18.20;99.90;;;;;;5023939;28;20038;-58
2023/09/14 10:38:47;;;;;;;16.85;8.63;;;17.70;99.90;;;;;;5023792;28;20033;-58
2023/09/14 10:41:13;;;;;;;21.98;8.85;;;17.80;99.90;;;;;;5028685;28;20140;-58
2023/09/14 10:43:41;;;;;;;17.83;8.70;;;19.30;99.90;;;;;;5032002;28;20044;-57
2023/09/14 10:46:14;;;;;;;13.00;7.50;;;18.40;99.90;;;;;;5028646;28;20124;-58
2023/09/14 10:48:40;;;;;;;14.30;7.35;;;18.70;99.90;;;;;;5025381;28;20060;-58
2023/09/14 10:51:08;;;;;;;11.93;7.00;;;18.50;99.90;;;;;;5021679;28;20100;-57
2023/09/14 10:53:35;;;;;;;10.57;6.13;;;18.50;99.90;;;;;;5026239;28;20077;-58
2023/09/14 10:56:02;;;;;;;14.50;6.68;;;18.40;99.90;;;;;;5030540;28;20111;-60
2023/09/14 10:58:40;;;;;;;14.15;6.70;;;18.80;99.90;;;;;;5026281;28;20030;-59
2023/09/14 11:01:10;;;;;;;12.38;5.70;;;;;;;;;;5025538;28;20088;-60
2023/09/14 11:04:04;;;;;;;7.88;4.07;;;18.90;99.90;;;;;;5032771;28;20030;-60
2023/09/14 11:06:46;;;;;;;;;;;17.80;99.90;;;;;;5034234;28;20040;-60
2023/09/14 11:09:15;;;;;;;11.15;3.92;;;18.30;99.90;;;;;;5027191;28;20328;-58
2023/09/14 11:11:45;;;;;;;11.75;5.45;;;18.60;99.90;;;;;;5028210;28;20428;-60
2023/09/14 11:14:15;;;;;;;11.20;5.40;;;18.70;99.90;;;;;;5038406;28;20390;-60
2023/09/14 11:16:46;;;;;;;10.20;5.63;;;18.70;99.90;;;;;;5030921;28;20037;-60
2023/09/14 11:19:32;;;;;;;13.30;5.80;;;18.70;99.90;;;;;;5032817;28;20136;-60
2023/09/14 11:22:03;;;;;;;16.55;6.18;;;18.80;99.90;;;;;;5030886;28;20111;-60
2023/09/14 11:24:36;;;;;;;8.88;5.68;;;19.10;99.90;;;;;;5030633;28;20113;-59
2023/09/14 11:27:02;;;;;;;12.85;6.00;;;19.10;99.90;;;;;;5031783;28;20137;-57
2023/09/14 11:29:30;;;;;;;11.00;5.63;;;19.30;99.90;;;;;;5033419;28;20499;-59
2023/09/14 11:32:02;;;;;;;11.40;5.30;;;19.00;99.90;;;;;;5030175;28;20405;-59
2023/09/14 11:34:31;;;;;;;10.45;5.57;;;18.90;99.90;;;;;;5025482;28;20513;-59
2023/09/14 11:37:01;;;;;;;9.50;4.63;;;18.90;99.90;;;;;;5007926;28;20104;-60
2023/09/14 11:39:28;;;;;;;7.53;4.93;;;19.30;99.90;;;;;;5021932;28;20045;-59
2023/09/14 11:41:57;;;;;;;10.18;4.60;;;19.30;99.90;;;;;;5018545;28;20717;-59
2023/09/14 11:44:24;;;;;;;87.18;58.95;;;19.60;99.90;;;;;;5021145;28;20040;-59
2023/09/14 11:46:49;;;;;;;8.07;4.43;;;19.30;99.90;;;;;;5022321;28;20060;-59
2023/09/14 11:49:20;;;;;;;11.23;4.82;;;19.20;99.90;;;;;;5000676;28;20035;-58
2023/09/14 11:51:47;;;;;;;8.07;4.43;;;19.40;99.90;;;;;;5013221;28;20068;-58
2023/09/14 11:54:13;;;;;;;10.20;4.55;;;19.60;99.90;;;;;;5037900;28;20415;-57
2023/09/14 11:56:39;;;;;;;9.75;4.30;;;;;;;;;;5005792;28;20052;-59
2023/09/14 11:59:06;;;;;;;9.65;4.63;;;20.10;99.90;;;;;;5006028;28;20046;-59
2023/09/14 12:01:35;;;;;;;10.43;4.32;;;19.80;99.90;;;;;;5008906;28;20381;-59
2023/09/14 12:04:04;;;;;;;8.35;4.68;;;19.50;99.90;;;;;;5010957;28;20037;-59
2023/09/14 12:06:30;;;;;;;8.15;4.43;;;19.90;99.90;;;;;;5018371;28;20034;-58
2023/09/14 12:08:58;;;;;;;6.72;4.57;;;19.70;99.90;;;;;;5013756;28;20084;-57
2023/09/14 12:11:35;;;;;;;7.25;4.30;;;19.80;99.90;;;;;;5004885;28;20084;-59
2023/09/14 12:14:01;;;;;;;8.85;4.82;;;19.80;99.90;;;;;;5007482;28;20637;-59
2023/09/14 12:16:27;;;;;;;8.88;4.80;;;;;;;;;;5017458;28;20045;-59
2023/09/14 12:18:55;;;;;;;9.05;4.60;;;20.80;99.90;;;;;;5010780;28;20033;-59
2023/09/14 12:21:25;;;;;;;10.38;5.13;;;;;;;;;;5033203;28;20041;-59
2023/09/14 12:23:52;;;;;;;7.72;4.95;;;;;;;;;;5033678;28;20033;-59
2023/09/14 12:26:20;;;;;;;9.88;5.60;;;;;;;;;;5025294;28;20453;-59
2023/09/14 12:28:52;;;;;;;11.00;5.90;;;;;;;;;;5032340;28;20034;-58
2023/09/14 12:31:19;;;;;;;8.10;4.93;;;19.10;99.90;;;;;;5029430;28;20245;-59
2023/09/14 12:33:45;;;;;;;9.13;4.03;;;19.30;99.90;;;;;;5029841;28;20037;-59
2023/09/14 12:36:11;;;;;;;9.00;4.00;;;19.50;99.90;;;;;;5024884;28;20033;-58
2023/09/14 12:38:40;;;;;;;7.10;3.80;;;19.40;99.90;;;;;;5027273;28;20037;-58
2023/09/14 12:41:06;;;;;;;7.43;4.35;;;19.50;99.90;;;;;;5032130;28;20143;-58
2023/09/14 12:43:33;;;;;;;7.95;4.13;;;19.70;99.90;;;;;;5034066;28;20440;-57
2023/09/14 12:45:59;;;;;;;6.88;4.00;;;19.70;99.90;;;;;;5029884;28;20044;-59
2023/09/14 12:48:28;;;;;;;6.78;4.43;;;19.70;99.90;;;;;;5028921;28;20049;-58
2023/09/14 12:50:57;;;;;;;7.30;4.43;;;;;;;;;;5028497;28;20064;-59
2023/09/14 12:53:28;;;;;;;8.70;4.07;;;;;;;;;;5024705;28;20059;-59
2023/09/14 12:55:54;;;;;;;6.40;4.57;;;19.10;99.90;;;;;;5020915;28;20412;-58
2023/09/14 12:58:21;;;;;;;9.15;4.82;;;19.50;99.90;;;;;;5030712;28;20025;-59
2023/09/14 13:00:47;;;;;;;8.48;4.93;;;19.50;99.90;;;;;;5025818;28;20025;-58
2023/09/14 13:03:17;;;;;;;8.18;4.43;;;;;;;;;;5023057;28;20033;-59
2023/09/14 13:05:44;;;;;;;9.10;4.57;;;19.60;99.90;;;;;;5022403;28;20037;-59
2023/09/14 13:08:10;;;;;;;8.23;4.05;;;19.50;99.90;;;;;;5033555;28;20029;-58